WetterOnline ( https://www.wetteronline.de )

Wetter aktuell Westerwald (in 500m)

Aktuelles Wetter: Bad Marienberg (555m)

6-stündlich | Neueste Meldungen
Ortszeit Temperatur Wetter
Mi, 03.03. 19:00 10.2° C bedeckt
Mi, 03.03. 13:00 13.1° C wolkenlos
Mi, 03.03. 7:00 6.2° C wolkig
Mi, 03.03. 1:00 6.7° C fast wolkenlos
Di, 02.03. 19:00 8.0° C wolkenlos
Di, 02.03. 13:00 9.6° C wolkenlos
Di, 02.03. 7:00 3.5° C wolkenlos
Di, 02.03. 1:00 5.7° C wolkenlos
Ortszeit Temperatur Wetter
Mi, 03.03. 23:00 9.5° C bedeckt
Mi, 03.03. 22:50 9.5° C bedeckt
Mi, 03.03. 22:40 9.4° C bedeckt
Mi, 03.03. 22:30 9.0° C bedeckt
Mi, 03.03. 22:20 9.0° C bedeckt
Mi, 03.03. 22:10 9.2° C bewölkt
Mi, 03.03. 22:00 9.8° C bewölkt
Mi, 03.03. 21:30 9.5° C wolkig
Mi, 03.03. 21:00 9.3° C wolkig
Mi, 03.03. 20:30 9.5° C bewölkt
Mi, 03.03. 20:00 9.6° C leicht bewölkt
Ortszeit Relative Feuchte Sichtweite
Mi, 03.03. 19:00 58% 26 km
Mi, 03.03. 13:00 48% -
Mi, 03.03. 7:00 67% 26 km
Mi, 03.03. 1:00 66% 28 km
Di, 02.03. 19:00 64% 35 km
Di, 02.03. 13:00 57% 55 km
Di, 02.03. 7:00 77% 30 km
Di, 02.03. 1:00 70% 50 km
Ortszeit Relative Feuchte Sichtweite
Mi, 03.03. 23:00 62% 21 km
Mi, 03.03. 22:50 62% -
Mi, 03.03. 22:40 63% -
Mi, 03.03. 22:30 64% 22 km
Mi, 03.03. 22:20 64% -
Mi, 03.03. 22:10 63% -
Mi, 03.03. 22:00 61% 23 km
Mi, 03.03. 21:30 62% 24 km
Mi, 03.03. 21:00 61% 24 km
Mi, 03.03. 20:30 60% 24 km
Mi, 03.03. 20:00 60% 26 km
Ortszeit Niederschlagsmenge Niederschlagsart
Mi, 03.03. 19:00 0.0 l/m2 in 12 Std. -
Mi, 03.03. 13:00 0.0 l/m2 in 6 Std. -
Mi, 03.03. 7:00 0.0 l/m2 in 12 Std. -
Mi, 03.03. 1:00 0.0 l/m2 in 6 Std. -
Di, 02.03. 19:00 0.0 l/m2 in 12 Std. -
Di, 02.03. 13:00 0.0 l/m2 in 6 Std. -
Di, 02.03. 7:00 0.0 l/m2 in 12 Std. -
Di, 02.03. 1:00 0.0 l/m2 in 6 Std. -
Ortszeit Niederschlagsmenge Niederschlagsart
Mi, 03.03. 23:00 0.0 l/m2 in 1 Std. -
Mi, 03.03. 22:50 keine Meldung -
Mi, 03.03. 22:40 keine Meldung -
Mi, 03.03. 22:30 0.0 l/m2 in 1 Std. -
Mi, 03.03. 22:20 keine Meldung -
Mi, 03.03. 22:10 keine Meldung -
Mi, 03.03. 22:00 0.0 l/m2 in 1 Std. -
Mi, 03.03. 21:30 0.0 l/m2 in 1 Std. -
Mi, 03.03. 21:00 0.0 l/m2 in 1 Std. -
Mi, 03.03. 20:30 0.0 l/m2 in 1 Std. -
Mi, 03.03. 20:00 0.0 l/m2 in 1 Std. -
Ortszeit Stärke Spitze Richtung
km/h Bft. km/h Grad Sektor
Mi, 03.03. 19:00 7 2 22 310° NW
Mi, 03.03. 13:00 7 2 18 290° W
Mi, 03.03. 7:00 7 2 11 160° S
Mi, 03.03. 1:00 7 2 15 140° SO
Di, 02.03. 19:00 7 2 22 140° SO
Di, 02.03. 13:00 18 3 29 150° SO
Di, 02.03. 7:00 17 3 31 120° SO
Di, 02.03. 1:00 22 4 32 130° SO
Ortszeit Stärke Spitze Richtung
km/h Bft. km/h Grad Sektor
Mi, 03.03. 23:00 7 2 7 320° NW
Mi, 03.03. 22:50 7 2 - 320° NW
Mi, 03.03. 22:40 4 1 - 320° NW
Mi, 03.03. 22:30 4 1 7 210° SW
Mi, 03.03. 22:20 4 1 - 210° SW
Mi, 03.03. 22:10 4 1 - 220° SW
Mi, 03.03. 22:00 6 1 9 320° NW
Mi, 03.03. 21:30 7 2 7 310° NW
Mi, 03.03. 21:00 7 2 7 290° W
Mi, 03.03. 20:30 7 2 7 310° NW
Mi, 03.03. 20:00 7 2 11 310° NW
Ortszeit Untergrenze Bedeckung Gattung
total tief tief mittel hoch
Mi, 03.03. 19:00 3000 m 8/8 8/8 - - -
Mi, 03.03. 13:00 - 0/8 0/8 - - -
Mi, 03.03. 7:00 3600 m 8/8 2/8 - - -
Mi, 03.03. 1:00 9000 m 1/8 0/8 - - -
Di, 02.03. 19:00 - 0/8 0/8 - - -
Di, 02.03. 13:00 - 0/8 0/8 - - -
Di, 02.03. 7:00 - 0/8 0/8 - - -
Di, 02.03. 1:00 - 0/8 0/8 - - -
Ortszeit Bedeckungsgrad in Achtel und Wolkenuntergrenze
Mi, 03.03. 23:00 8(2700m)
Mi, 03.03. 22:50 8(2700m)
Mi, 03.03. 22:40 8(2700m)
Mi, 03.03. 22:30 8(2700m)
Mi, 03.03. 22:20 8(2700m)
Mi, 03.03. 22:10 7(2700m) 7(8100m)
Mi, 03.03. 22:00 5(2700m) 8(7800m) 8(9000m)
Mi, 03.03. 21:30 2(3000m) 8(7800m) 8(9000m)
Mi, 03.03. 21:00 3(2700m) 8(8400m)
Mi, 03.03. 20:30 7(3000m) 7(9000m)
Mi, 03.03. 20:00 2(3000m) 4(9000m)
Ortszeit Luftdruck NN (hPa) Tendenz (hPa in 3 Std.)
Mi, 03.03. 19:00 1026 - 0,8
Mi, 03.03. 13:00 1028 - 0,8
Mi, 03.03. 7:00 1030 - 0,7
Mi, 03.03. 1:00 1031 - 0,7
Di, 02.03. 19:00 1032 0,0
Di, 02.03. 13:00 1032 + 0,3
Di, 02.03. 7:00 1032 + 0,1
Di, 02.03. 1:00 1032 - 0,3
Ortszeit Luftdruck NN (hPa) Tendenz (hPa in 3 Std.)
Mi, 03.03. 23:00 1025 - 1,0
Mi, 03.03. 22:50 1025 keine Meldung
Mi, 03.03. 22:40 1025 keine Meldung
Mi, 03.03. 22:30 1025 - 0,9
Mi, 03.03. 22:20 1025 keine Meldung
Mi, 03.03. 22:10 1025 keine Meldung
Mi, 03.03. 22:00 1025 - 1,0
Mi, 03.03. 21:30 1025 - 0,8
Mi, 03.03. 21:00 1026 - 0,7
Mi, 03.03. 20:30 1026 - 0,5
Mi, 03.03. 20:00 1026 - 0,5
Ortszeit Schneehöhe (cm)
Mi, 03.03. 19:00 0
Mi, 03.03. 13:00 0
Mi, 03.03. 7:00 0
Mi, 03.03. 1:00 0
Di, 02.03. 19:00 0
Di, 02.03. 13:00 0
Di, 02.03. 7:00 0
Di, 02.03. 1:00 0
Ortszeit Schneehöhe (cm)
Mi, 03.03. 23:00 0
Mi, 03.03. 22:50 0
Mi, 03.03. 22:40 0
Mi, 03.03. 22:30 0
Mi, 03.03. 22:20 0
Mi, 03.03. 22:10 0
Mi, 03.03. 22:00 0
Mi, 03.03. 21:30 0
Mi, 03.03. 21:00 0
Mi, 03.03. 20:30 0
Mi, 03.03. 20:00 0
Link zu dieser Seite / Seite empfehlen

Das Wetter in ...